Terminal Aerodrome Forecast
Issued by NWS Missoula, MT

Home | Current Version | Previous Version | Text Only | Print | Product List | Glossary On
Versions: 1 2 3 4 5 6 7 8 9 10 11 12 13 14 15 16 17 18 19
757
FTUS45 KMSO 091622 AAB
TAFMSO
TAF AMD
KMSO 091622Z 0916/1012 00000KT 2SM BR FEW005
      TEMPO 0916/0918 1/4SM FG
     FM091800 VRB03KT 6SM HZ SKC=

USA.gov is the U.S. government's official web portal to all federal, state and local government web resources and services.